Aviation Digital Data Service (ADDS)

Output produced by METARs form (0915 UTC 23 July 2019)
found at http://www.aviationweather.gov/metar/data/
 
Forecast for: GOOY (DAKAR/YOFF , SN)
Text: TAF GOOY 230530Z 2306/2412 32008KT 9999 SCT013
Forecast period: 0600 UTC 23 July 2019 to 1200 UTC 24 July 2019
Forecast type: FROM: standard forecast or significant change
Winds: from the NW (320 degrees) at 9 MPH (8 knots; 4.1 m/s)
Visibility: 6 or more miles 10+ km)
Ceiling: at least 12,000 feet AGL
Clouds: scattered clouds at 1300 feet AGL
Weather: no significant weather forecast for this period